sensor_id;sensor_type;location;lat;lon;timestamp;P1;durP1;ratioP1;P2;durP2;ratioP2
31676;SDS011;18385;51.572;6.578;2023-03-18T00:01:27;5.40;;;1.92;;
31676;SDS011;18385;51.572;6.578;2023-03-18T00:03:53;5.90;;;2.20;;
31676;SDS011;18385;51.572;6.578;2023-03-18T00:06:19;7.70;;;2.20;;
31676;SDS011;18385;51.572;6.578;2023-03-18T00:08:46;4.45;;;2.50;;
31676;SDS011;18385;51.572;6.578;2023-03-18T00:11:13;4.68;;;2.03;;
31676;SDS011;18385;51.572;6.578;2023-03-18T00:13:40;10.02;;;2.28;;
31676;SDS011;18385;51.572;6.578;2023-03-18T00:16:07;6.85;;;2.30;;
31676;SDS011;18385;51.572;6.578;2023-03-18T00:18:35;7.60;;;2.33;;
31676;SDS011;18385;51.572;6.578;2023-03-18T00:21:02;5.65;;;1.92;;
31676;SDS011;18385;51.572;6.578;2023-03-18T00:23:29;9.25;;;2.40;;
31676;SDS011;18385;51.572;6.578;2023-03-18T00:25:56;7.95;;;2.47;;
31676;SDS011;18385;51.572;6.578;2023-03-18T00:28:24;9.70;;;2.50;;
31676;SDS011;18385;51.572;6.578;2023-03-18T00:30:51;6.75;;;2.35;;
31676;SDS011;18385;51.572;6.578;2023-03-18T00:33:17;7.22;;;2.55;;
31676;SDS011;18385;51.572;6.578;2023-03-18T00:35:44;9.55;;;3.85;;
31676;SDS011;18385;51.572;6.578;2023-03-18T00:38:11;7.40;;;2.80;;
31676;SDS011;18385;51.572;6.578;2023-03-18T00:40:48;10.10;;;2.80;;
31676;SDS011;18385;51.572;6.578;2023-03-18T00:43:21;7.97;;;2.40;;
31676;SDS011;18385;51.572;6.578;2023-03-18T00:45:53;10.30;;;2.08;;
31676;SDS011;18385;51.572;6.578;2023-03-18T00:48:20;6.55;;;2.00;;
31676;SDS011;18385;51.572;6.578;2023-03-18T00:50:48;7.65;;;2.00;;
31676;SDS011;18385;51.572;6.578;2023-03-18T00:53:14;7.88;;;2.03;;
31676;SDS011;18385;51.572;6.578;2023-03-18T00:55:41;4.65;;;1.73;;
31676;SDS011;18385;51.572;6.578;2023-03-18T00:58:08;5.75;;;2.15;;
31676;SDS011;18385;51.572;6.578;2023-03-18T01:00:35;8.30;;;1.80;;
31676;SDS011;18385;51.572;6.578;2023-03-18T01:03:02;7.93;;;2.10;;
31676;SDS011;18385;51.572;6.578;2023-03-18T01:05:31;4.47;;;1.67;;
31676;SDS011;18385;51.572;6.578;2023-03-18T01:07:57;6.50;;;2.33;;
31676;SDS011;18385;51.572;6.578;2023-03-18T01:10:23;12.73;;;3.08;;
31676;SDS011;18385;51.572;6.578;2023-03-18T01:12:49;6.55;;;1.77;;
31676;SDS011;18385;51.572;6.578;2023-03-18T01:15:15;5.75;;;2.00;;
31676;SDS011;18385;51.572;6.578;2023-03-18T01:17:43;8.98;;;1.80;;
31676;SDS011;18385;51.572;6.578;2023-03-18T01:20:10;5.07;;;1.80;;
31676;SDS011;18385;51.572;6.578;2023-03-18T01:22:37;5.13;;;1.95;;
31676;SDS011;18385;51.572;6.578;2023-03-18T01:25:06;6.03;;;2.00;;
31676;SDS011;18385;51.572;6.578;2023-03-18T01:30:01;4.35;;;1.55;;
31676;SDS011;18385;51.572;6.578;2023-03-18T01:32:28;5.80;;;2.10;;
31676;SDS011;18385;51.572;6.578;2023-03-18T01:34:53;5.65;;;1.80;;
31676;SDS011;18385;51.572;6.578;2023-03-18T01:37:19;5.40;;;1.80;;
31676;SDS011;18385;51.572;6.578;2023-03-18T01:39:50;6.93;;;1.92;;
31676;SDS011;18385;51.572;6.578;2023-03-18T01:42:21;4.32;;;1.70;;
31676;SDS011;18385;51.572;6.578;2023-03-18T01:44:47;7.18;;;1.52;;
31676;SDS011;18385;51.572;6.578;2023-03-18T01:47:13;7.10;;;1.98;;
31676;SDS011;18385;51.572;6.578;2023-03-18T01:49:46;6.75;;;2.42;;
31676;SDS011;18385;51.572;6.578;2023-03-18T01:52:18;8.55;;;2.40;;
31676;SDS011;18385;51.572;6.578;2023-03-18T01:54:48;8.68;;;3.05;;
31676;SDS011;18385;51.572;6.578;2023-03-18T02:00:04;5.47;;;2.42;;
31676;SDS011;18385;51.572;6.578;2023-03-18T02:02:39;6.22;;;2.88;;
31676;SDS011;18385;51.572;6.578;2023-03-18T02:05:07;7.63;;;2.80;;
31676;SDS011;18385;51.572;6.578;2023-03-18T02:07:39;6.10;;;3.03;;
31676;SDS011;18385;51.572;6.578;2023-03-18T02:10:28;8.27;;;2.30;;
31676;SDS011;18385;51.572;6.578;2023-03-18T02:12:59;6.18;;;3.13;;
31676;SDS011;18385;51.572;6.578;2023-03-18T02:15:37;10.15;;;3.67;;
31676;SDS011;18385;51.572;6.578;2023-03-18T02:18:13;8.68;;;2.78;;
31676;SDS011;18385;51.572;6.578;2023-03-18T02:26:59;7.75;;;3.25;;
31676;SDS011;18385;51.572;6.578;2023-03-18T02:29:35;7.20;;;2.95;;
31676;SDS011;18385;51.572;6.578;2023-03-18T02:32:08;9.27;;;3.47;;
31676;SDS011;18385;51.572;6.578;2023-03-18T02:34:36;8.60;;;3.80;;
31676;SDS011;18385;51.572;6.578;2023-03-18T02:37:05;6.50;;;3.20;;
31676;SDS011;18385;51.572;6.578;2023-03-18T02:39:33;9.40;;;3.00;;
31676;SDS011;18385;51.572;6.578;2023-03-18T02:42:00;10.02;;;4.50;;
31676;SDS011;18385;51.572;6.578;2023-03-18T02:44:26;5.88;;;2.95;;
31676;SDS011;18385;51.572;6.578;2023-03-18T02:47:16;9.18;;;3.08;;
31676;SDS011;18385;51.572;6.578;2023-03-18T02:49:44;7.53;;;3.83;;
31676;SDS011;18385;51.572;6.578;2023-03-18T02:52:12;9.90;;;4.03;;
31676;SDS011;18385;51.572;6.578;2023-03-18T02:54:37;8.45;;;2.97;;
31676;SDS011;18385;51.572;6.578;2023-03-18T02:57:03;9.30;;;3.08;;
31676;SDS011;18385;51.572;6.578;2023-03-18T02:59:29;7.43;;;3.33;;
31676;SDS011;18385;51.572;6.578;2023-03-18T03:01:57;11.85;;;4.00;;
31676;SDS011;18385;51.572;6.578;2023-03-18T03:04:23;10.07;;;3.65;;
31676;SDS011;18385;51.572;6.578;2023-03-18T03:06:50;8.88;;;3.25;;
31676;SDS011;18385;51.572;6.578;2023-03-18T03:09:20;11.32;;;4.10;;
31676;SDS011;18385;51.572;6.578;2023-03-18T03:11:47;9.88;;;4.55;;
31676;SDS011;18385;51.572;6.578;2023-03-18T03:14:18;11.15;;;4.53;;
31676;SDS011;18385;51.572;6.578;2023-03-18T03:16:47;11.88;;;4.53;;
31676;SDS011;18385;51.572;6.578;2023-03-18T03:19:15;9.13;;;3.97;;
31676;SDS011;18385;51.572;6.578;2023-03-18T03:21:40;12.32;;;4.50;;
31676;SDS011;18385;51.572;6.578;2023-03-18T03:24:06;9.00;;;3.60;;
31676;SDS011;18385;51.572;6.578;2023-03-18T03:26:33;8.55;;;3.50;;
31676;SDS011;18385;51.572;6.578;2023-03-18T03:29:00;11.50;;;4.22;;
31676;SDS011;18385;51.572;6.578;2023-03-18T03:31:26;15.40;;;4.22;;
31676;SDS011;18385;51.572;6.578;2023-03-18T03:33:52;10.65;;;4.10;;
31676;SDS011;18385;51.572;6.578;2023-03-18T03:36:18;7.07;;;3.60;;
31676;SDS011;18385;51.572;6.578;2023-03-18T03:38:43;8.98;;;3.63;;
31676;SDS011;18385;51.572;6.578;2023-03-18T03:41:10;10.85;;;3.50;;
31676;SDS011;18385;51.572;6.578;2023-03-18T03:43:37;9.38;;;4.50;;
31676;SDS011;18385;51.572;6.578;2023-03-18T03:46:03;8.15;;;3.58;;
31676;SDS011;18385;51.572;6.578;2023-03-18T03:48:30;13.02;;;4.82;;
31676;SDS011;18385;51.572;6.578;2023-03-18T03:50:56;9.00;;;3.35;;
31676;SDS011;18385;51.572;6.578;2023-03-18T03:53:21;11.77;;;3.72;;
31676;SDS011;18385;51.572;6.578;2023-03-18T03:55:48;9.40;;;3.78;;
31676;SDS011;18385;51.572;6.578;2023-03-18T03:58:14;5.70;;;3.05;;
31676;SDS011;18385;51.572;6.578;2023-03-18T04:00:42;8.93;;;3.25;;
31676;SDS011;18385;51.572;6.578;2023-03-18T04:03:08;10.80;;;3.70;;
31676;SDS011;18385;51.572;6.578;2023-03-18T04:05:34;11.30;;;3.85;;
31676;SDS011;18385;51.572;6.578;2023-03-18T04:08:01;8.18;;;3.25;;
31676;SDS011;18385;51.572;6.578;2023-03-18T04:10:33;9.90;;;3.10;;
31676;SDS011;18385;51.572;6.578;2023-03-18T04:13:03;8.40;;;2.90;;
31676;SDS011;18385;51.572;6.578;2023-03-18T04:15:29;10.15;;;2.95;;
31676;SDS011;18385;51.572;6.578;2023-03-18T04:17:57;7.03;;;2.78;;
31676;SDS011;18385;51.572;6.578;2023-03-18T04:20:28;14.15;;;3.05;;
31676;SDS011;18385;51.572;6.578;2023-03-18T04:22:54;9.05;;;2.90;;
31676;SDS011;18385;51.572;6.578;2023-03-18T04:25:22;7.60;;;3.08;;
31676;SDS011;18385;51.572;6.578;2023-03-18T04:27:50;7.17;;;3.27;;
31676;SDS011;18385;51.572;6.578;2023-03-18T04:30:19;7.43;;;2.75;;
31676;SDS011;18385;51.572;6.578;2023-03-18T04:32:57;8.82;;;3.08;;
31676;SDS011;18385;51.572;6.578;2023-03-18T04:35:25;7.88;;;2.65;;
31676;SDS011;18385;51.572;6.578;2023-03-18T04:37:52;9.70;;;3.08;;
31676;SDS011;18385;51.572;6.578;2023-03-18T04:40:20;7.82;;;2.90;;
31676;SDS011;18385;51.572;6.578;2023-03-18T04:42:46;8.50;;;3.25;;
31676;SDS011;18385;51.572;6.578;2023-03-18T04:45:13;10.25;;;3.15;;
31676;SDS011;18385;51.572;6.578;2023-03-18T04:47:40;7.50;;;2.50;;
31676;SDS011;18385;51.572;6.578;2023-03-18T04:50:08;12.18;;;2.83;;
31676;SDS011;18385;51.572;6.578;2023-03-18T04:52:36;8.07;;;3.15;;
31676;SDS011;18385;51.572;6.578;2023-03-18T04:55:08;10.43;;;3.30;;
31676;SDS011;18385;51.572;6.578;2023-03-18T04:57:37;9.10;;;3.22;;
31676;SDS011;18385;51.572;6.578;2023-03-18T05:00:06;10.43;;;3.03;;
31676;SDS011;18385;51.572;6.578;2023-03-18T05:02:36;7.82;;;3.28;;
31676;SDS011;18385;51.572;6.578;2023-03-18T05:05:03;8.60;;;3.17;;
31676;SDS011;18385;51.572;6.578;2023-03-18T05:07:36;9.38;;;3.65;;
31676;SDS011;18385;51.572;6.578;2023-03-18T05:10:08;11.15;;;4.35;;
31676;SDS011;18385;51.572;6.578;2023-03-18T05:12:35;10.50;;;4.30;;
31676;SDS011;18385;51.572;6.578;2023-03-18T05:15:02;10.18;;;4.85;;
31676;SDS011;18385;51.572;6.578;2023-03-18T05:17:28;12.15;;;5.03;;
31676;SDS011;18385;51.572;6.578;2023-03-18T05:22:24;12.32;;;5.03;;
31676;SDS011;18385;51.572;6.578;2023-03-18T05:24:57;11.77;;;5.60;;
31676;SDS011;18385;51.572;6.578;2023-03-18T05:27:25;13.45;;;5.43;;
31676;SDS011;18385;51.572;6.578;2023-03-18T05:29:58;10.65;;;5.43;;
31676;SDS011;18385;51.572;6.578;2023-03-18T05:32:38;11.80;;;5.15;;
31676;SDS011;18385;51.572;6.578;2023-03-18T05:35:06;12.13;;;5.43;;
31676;SDS011;18385;51.572;6.578;2023-03-18T05:37:42;15.52;;;6.75;;
31676;SDS011;18385;51.572;6.578;2023-03-18T05:40:08;12.02;;;5.53;;
31676;SDS011;18385;51.572;6.578;2023-03-18T05:42:37;13.82;;;6.55;;
31676;SDS011;18385;51.572;6.578;2023-03-18T05:45:05;16.02;;;7.50;;
31676;SDS011;18385;51.572;6.578;2023-03-18T05:47:33;12.18;;;5.72;;
31676;SDS011;18385;51.572;6.578;2023-03-18T05:53:55;10.95;;;5.68;;
31676;SDS011;18385;51.572;6.578;2023-03-18T05:56:25;13.75;;;6.90;;
31676;SDS011;18385;51.572;6.578;2023-03-18T05:58:55;11.75;;;6.20;;
31676;SDS011;18385;51.572;6.578;2023-03-18T06:01:50;15.27;;;6.03;;
31676;SDS011;18385;51.572;6.578;2023-03-18T06:04:18;10.95;;;5.75;;
31676;SDS011;18385;51.572;6.578;2023-03-18T06:06:44;12.75;;;6.82;;
31676;SDS011;18385;51.572;6.578;2023-03-18T06:09:11;14.60;;;6.05;;
31676;SDS011;18385;51.572;6.578;2023-03-18T06:11:41;11.70;;;5.78;;
31676;SDS011;18385;51.572;6.578;2023-03-18T06:14:08;15.20;;;6.05;;
31676;SDS011;18385;51.572;6.578;2023-03-18T06:16:36;11.77;;;5.78;;
31676;SDS011;18385;51.572;6.578;2023-03-18T06:19:02;12.40;;;5.38;;
31676;SDS011;18385;51.572;6.578;2023-03-18T06:21:29;14.13;;;5.80;;
31676;SDS011;18385;51.572;6.578;2023-03-18T06:23:57;15.00;;;6.38;;
31676;SDS011;18385;51.572;6.578;2023-03-18T06:26:24;11.40;;;5.80;;
31676;SDS011;18385;51.572;6.578;2023-03-18T06:28:50;13.02;;;6.05;;
31676;SDS011;18385;51.572;6.578;2023-03-18T06:31:17;9.05;;;4.95;;
31676;SDS011;18385;51.572;6.578;2023-03-18T06:33:42;14.60;;;6.00;;
31676;SDS011;18385;51.572;6.578;2023-03-18T06:36:13;12.70;;;5.75;;
31676;SDS011;18385;51.572;6.578;2023-03-18T06:38:44;14.18;;;5.70;;
31676;SDS011;18385;51.572;6.578;2023-03-18T06:41:10;15.27;;;5.20;;
31676;SDS011;18385;51.572;6.578;2023-03-18T06:43:41;10.63;;;5.00;;
31676;SDS011;18385;51.572;6.578;2023-03-18T06:46:08;14.88;;;5.97;;
31676;SDS011;18385;51.572;6.578;2023-03-18T06:48:35;10.52;;;5.10;;
31676;SDS011;18385;51.572;6.578;2023-03-18T06:53:34;11.15;;;5.50;;
31676;SDS011;18385;51.572;6.578;2023-03-18T06:56:03;12.80;;;5.35;;
31676;SDS011;18385;51.572;6.578;2023-03-18T06:58:37;11.07;;;4.80;;
31676;SDS011;18385;51.572;6.578;2023-03-18T07:01:06;12.68;;;5.55;;
31676;SDS011;18385;51.572;6.578;2023-03-18T07:03:37;11.13;;;5.57;;
31676;SDS011;18385;51.572;6.578;2023-03-18T07:06:04;13.15;;;5.90;;
31676;SDS011;18385;51.572;6.578;2023-03-18T07:08:31;10.05;;;4.80;;
31676;SDS011;18385;51.572;6.578;2023-03-18T07:10:59;12.73;;;4.70;;
31676;SDS011;18385;51.572;6.578;2023-03-18T07:13:25;10.57;;;4.85;;
31676;SDS011;18385;51.572;6.578;2023-03-18T07:15:51;9.95;;;5.13;;
31676;SDS011;18385;51.572;6.578;2023-03-18T07:18:21;11.73;;;5.13;;
31676;SDS011;18385;51.572;6.578;2023-03-18T07:20:48;12.35;;;5.20;;
31676;SDS011;18385;51.572;6.578;2023-03-18T07:23:14;11.88;;;4.38;;
31676;SDS011;18385;51.572;6.578;2023-03-18T07:25:39;11.05;;;4.60;;
31676;SDS011;18385;51.572;6.578;2023-03-18T07:28:06;13.43;;;5.25;;
31676;SDS011;18385;51.572;6.578;2023-03-18T07:30:32;13.10;;;5.55;;
31676;SDS011;18385;51.572;6.578;2023-03-18T07:32:58;8.38;;;4.72;;
31676;SDS011;18385;51.572;6.578;2023-03-18T07:35:25;13.23;;;5.20;;
31676;SDS011;18385;51.572;6.578;2023-03-18T07:37:51;11.80;;;4.78;;
31676;SDS011;18385;51.572;6.578;2023-03-18T07:40:17;7.78;;;4.57;;
31676;SDS011;18385;51.572;6.578;2023-03-18T07:42:43;10.30;;;4.75;;
31676;SDS011;18385;51.572;6.578;2023-03-18T07:45:08;12.52;;;4.93;;
31676;SDS011;18385;51.572;6.578;2023-03-18T07:47:34;14.15;;;5.93;;
31676;SDS011;18385;51.572;6.578;2023-03-18T07:50:01;11.65;;;4.88;;
31676;SDS011;18385;51.572;6.578;2023-03-18T07:52:28;10.90;;;5.53;;
31676;SDS011;18385;51.572;6.578;2023-03-18T07:54:54;10.20;;;5.10;;
31676;SDS011;18385;51.572;6.578;2023-03-18T07:57:20;9.52;;;4.88;;
31676;SDS011;18385;51.572;6.578;2023-03-18T07:59:46;8.10;;;4.80;;
31676;SDS011;18385;51.572;6.578;2023-03-18T08:02:12;11.77;;;4.60;;
31676;SDS011;18385;51.572;6.578;2023-03-18T08:04:40;10.75;;;4.20;;
31676;SDS011;18385;51.572;6.578;2023-03-18T08:07:06;10.65;;;4.70;;
31676;SDS011;18385;51.572;6.578;2023-03-18T08:09:32;8.23;;;4.38;;
31676;SDS011;18385;51.572;6.578;2023-03-18T08:11:58;7.20;;;3.92;;
31676;SDS011;18385;51.572;6.578;2023-03-18T08:14:24;9.98;;;4.07;;
31676;SDS011;18385;51.572;6.578;2023-03-18T08:16:50;8.02;;;4.18;;
31676;SDS011;18385;51.572;6.578;2023-03-18T08:19:16;8.10;;;3.83;;
31676;SDS011;18385;51.572;6.578;2023-03-18T08:21:41;6.85;;;3.85;;
31676;SDS011;18385;51.572;6.578;2023-03-18T08:24:08;9.15;;;3.80;;
31676;SDS011;18385;51.572;6.578;2023-03-18T08:26:35;7.15;;;3.40;;
31676;SDS011;18385;51.572;6.578;2023-03-18T08:29:01;10.98;;;4.15;;
31676;SDS011;18385;51.572;6.578;2023-03-18T08:31:26;6.82;;;3.22;;
31676;SDS011;18385;51.572;6.578;2023-03-18T08:33:52;7.18;;;3.60;;
31676;SDS011;18385;51.572;6.578;2023-03-18T08:36:21;6.90;;;3.53;;
31676;SDS011;18385;51.572;6.578;2023-03-18T08:38:47;5.93;;;3.38;;
31676;SDS011;18385;51.572;6.578;2023-03-18T08:41:14;6.25;;;3.58;;
31676;SDS011;18385;51.572;6.578;2023-03-18T08:43:41;8.00;;;3.30;;
31676;SDS011;18385;51.572;6.578;2023-03-18T08:46:07;7.05;;;3.20;;
31676;SDS011;18385;51.572;6.578;2023-03-18T08:48:32;9.20;;;3.67;;
31676;SDS011;18385;51.572;6.578;2023-03-18T08:51:01;4.95;;;3.10;;
31676;SDS011;18385;51.572;6.578;2023-03-18T08:53:33;9.32;;;2.92;;
31676;SDS011;18385;51.572;6.578;2023-03-18T08:56:00;5.60;;;2.75;;
31676;SDS011;18385;51.572;6.578;2023-03-18T08:58:27;9.23;;;3.28;;
31676;SDS011;18385;51.572;6.578;2023-03-18T09:00:53;7.28;;;2.88;;
31676;SDS011;18385;51.572;6.578;2023-03-18T09:03:20;5.05;;;3.00;;
31676;SDS011;18385;51.572;6.578;2023-03-18T09:05:49;5.38;;;2.97;;
31676;SDS011;18385;51.572;6.578;2023-03-18T09:08:16;5.53;;;2.58;;
31676;SDS011;18385;51.572;6.578;2023-03-18T09:10:44;5.40;;;2.63;;
31676;SDS011;18385;51.572;6.578;2023-03-18T09:13:10;5.75;;;2.75;;
31676;SDS011;18385;51.572;6.578;2023-03-18T09:15:36;6.30;;;2.55;;
31676;SDS011;18385;51.572;6.578;2023-03-18T09:18:03;5.43;;;2.50;;
31676;SDS011;18385;51.572;6.578;2023-03-18T09:20:29;6.35;;;2.70;;
31676;SDS011;18385;51.572;6.578;2023-03-18T09:22:57;11.75;;;4.57;;
31676;SDS011;18385;51.572;6.578;2023-03-18T09:25:23;5.90;;;3.30;;
31676;SDS011;18385;51.572;6.578;2023-03-18T09:27:49;7.10;;;3.15;;
31676;SDS011;18385;51.572;6.578;2023-03-18T09:30:16;4.97;;;2.78;;
31676;SDS011;18385;51.572;6.578;2023-03-18T09:32:42;7.18;;;2.45;;
31676;SDS011;18385;51.572;6.578;2023-03-18T09:35:09;5.20;;;2.92;;
31676;SDS011;18385;51.572;6.578;2023-03-18T09:37:35;10.20;;;2.60;;
31676;SDS011;18385;51.572;6.578;2023-03-18T09:40:01;5.75;;;2.03;;
31676;SDS011;18385;51.572;6.578;2023-03-18T09:44:57;3.72;;;2.17;;
31676;SDS011;18385;51.572;6.578;2023-03-18T09:58:06;7.70;;;3.47;;
31676;SDS011;18385;51.572;6.578;2023-03-18T10:00:40;4.65;;;2.40;;
31676;SDS011;18385;51.572;6.578;2023-03-18T10:03:11;4.28;;;2.00;;
31676;SDS011;18385;51.572;6.578;2023-03-18T10:08:30;5.28;;;2.47;;
31676;SDS011;18385;51.572;6.578;2023-03-18T10:11:03;4.43;;;1.60;;
31676;SDS011;18385;51.572;6.578;2023-03-18T10:13:37;4.25;;;1.63;;
31676;SDS011;18385;51.572;6.578;2023-03-18T10:16:10;4.18;;;1.70;;
31676;SDS011;18385;51.572;6.578;2023-03-18T10:18:44;4.63;;;1.92;;
31676;SDS011;18385;51.572;6.578;2023-03-18T10:21:14;3.05;;;1.52;;
31676;SDS011;18385;51.572;6.578;2023-03-18T10:24:06;2.55;;;1.30;;
31676;SDS011;18385;51.572;6.578;2023-03-18T10:26:56;3.08;;;1.13;;
31676;SDS011;18385;51.572;6.578;2023-03-18T10:29:58;2.55;;;1.20;;
31676;SDS011;18385;51.572;6.578;2023-03-18T10:32:41;2.00;;;1.25;;
31676;SDS011;18385;51.572;6.578;2023-03-18T10:41:00;3.05;;;1.30;;
31676;SDS011;18385;51.572;6.578;2023-03-18T10:43:28;2.95;;;1.15;;
31676;SDS011;18385;51.572;6.578;2023-03-18T10:46:04;3.40;;;1.35;;
31676;SDS011;18385;51.572;6.578;2023-03-18T10:48:35;2.55;;;1.05;;
31676;SDS011;18385;51.572;6.578;2023-03-18T10:51:13;2.90;;;1.13;;
31676;SDS011;18385;51.572;6.578;2023-03-18T10:56:48;3.55;;;1.38;;
31676;SDS011;18385;51.572;6.578;2023-03-18T10:59:17;2.50;;;0.95;;
31676;SDS011;18385;51.572;6.578;2023-03-18T11:01:46;5.95;;;1.67;;
31676;SDS011;18385;51.572;6.578;2023-03-18T11:04:19;2.03;;;1.15;;
31676;SDS011;18385;51.572;6.578;2023-03-18T11:06:55;4.05;;;1.10;;
31676;SDS011;18385;51.572;6.578;2023-03-18T11:09:29;1.63;;;1.10;;
31676;SDS011;18385;51.572;6.578;2023-03-18T11:11:58;4.20;;;1.10;;
31676;SDS011;18385;51.572;6.578;2023-03-18T11:14:30;3.60;;;1.35;;
31676;SDS011;18385;51.572;6.578;2023-03-18T11:20:05;2.72;;;1.50;;
31676;SDS011;18385;51.572;6.578;2023-03-18T11:22:49;3.40;;;1.40;;
31676;SDS011;18385;51.572;6.578;2023-03-18T11:25:18;2.03;;;1.20;;
31676;SDS011;18385;51.572;6.578;2023-03-18T11:27:51;3.33;;;1.30;;
31676;SDS011;18385;51.572;6.578;2023-03-18T11:30:23;1.77;;;0.70;;
31676;SDS011;18385;51.572;6.578;2023-03-18T11:33:12;2.13;;;0.90;;
31676;SDS011;18385;51.572;6.578;2023-03-18T11:35:42;2.75;;;0.82;;
31676;SDS011;18385;51.572;6.578;2023-03-18T11:40:48;2.33;;;1.13;;
31676;SDS011;18385;51.572;6.578;2023-03-18T11:43:21;2.78;;;1.20;;
31676;SDS011;18385;51.572;6.578;2023-03-18T11:45:56;4.55;;;1.50;;
31676;SDS011;18385;51.572;6.578;2023-03-18T11:48:32;2.47;;;1.27;;
31676;SDS011;18385;51.572;6.578;2023-03-18T11:53:45;2.05;;;1.23;;
31676;SDS011;18385;51.572;6.578;2023-03-18T11:56:22;2.78;;;0.93;;
31676;SDS011;18385;51.572;6.578;2023-03-18T11:59:04;3.10;;;1.38;;
31676;SDS011;18385;51.572;6.578;2023-03-18T12:04:31;1.80;;;0.95;;
31676;SDS011;18385;51.572;6.578;2023-03-18T12:07:11;3.05;;;1.42;;
31676;SDS011;18385;51.572;6.578;2023-03-18T12:10:13;2.10;;;1.03;;
31676;SDS011;18385;51.572;6.578;2023-03-18T12:18:06;2.00;;;1.00;;
31676;SDS011;18385;51.572;6.578;2023-03-18T12:20:52;2.42;;;0.60;;
31676;SDS011;18385;51.572;6.578;2023-03-18T12:28:54;1.27;;;0.43;;
31676;SDS011;18385;51.572;6.578;2023-03-18T12:31:40;1.55;;;0.73;;
31676;SDS011;18385;51.572;6.578;2023-03-18T12:42:54;2.47;;;0.80;;
31676;SDS011;18385;51.572;6.578;2023-03-18T12:45:48;3.00;;;0.88;;
31676;SDS011;18385;51.572;6.578;2023-03-18T12:48:28;1.67;;;0.75;;
31676;SDS011;18385;51.572;6.578;2023-03-18T12:51:15;0.93;;;0.60;;
31676;SDS011;18385;51.572;6.578;2023-03-18T12:53:54;1.85;;;0.68;;
31676;SDS011;18385;51.572;6.578;2023-03-18T12:56:24;2.85;;;1.10;;
31676;SDS011;18385;51.572;6.578;2023-03-18T12:59:37;3.50;;;1.13;;
31676;SDS011;18385;51.572;6.578;2023-03-18T13:04:35;2.30;;;1.00;;
31676;SDS011;18385;51.572;6.578;2023-03-18T13:07:05;1.85;;;0.73;;
31676;SDS011;18385;51.572;6.578;2023-03-18T13:09:56;1.42;;;0.77;;
31676;SDS011;18385;51.572;6.578;2023-03-18T13:12:29;3.20;;;1.05;;
31676;SDS011;18385;51.572;6.578;2023-03-18T13:15:01;3.95;;;1.20;;
31676;SDS011;18385;51.572;6.578;2023-03-18T13:20:48;1.42;;;0.70;;
31676;SDS011;18385;51.572;6.578;2023-03-18T13:47:12;2.75;;;1.00;;
31676;SDS011;18385;51.572;6.578;2023-03-18T13:49:43;3.28;;;1.27;;
31676;SDS011;18385;51.572;6.578;2023-03-18T13:54:59;4.28;;;0.93;;
31676;SDS011;18385;51.572;6.578;2023-03-18T13:57:56;4.18;;;1.10;;
31676;SDS011;18385;51.572;6.578;2023-03-18T14:00:30;4.63;;;0.90;;
31676;SDS011;18385;51.572;6.578;2023-03-18T14:05:41;4.72;;;1.10;;
31676;SDS011;18385;51.572;6.578;2023-03-18T14:16:17;1.42;;;0.50;;
31676;SDS011;18385;51.572;6.578;2023-03-18T14:18:56;1.63;;;0.30;;
31676;SDS011;18385;51.572;6.578;2023-03-18T14:21:31;0.90;;;0.52;;
31676;SDS011;18385;51.572;6.578;2023-03-18T14:29:41;1.00;;;0.30;;
31676;SDS011;18385;51.572;6.578;2023-03-18T14:34:53;2.50;;;0.63;;
31676;SDS011;18385;51.572;6.578;2023-03-18T14:37:27;2.75;;;0.85;;
31676;SDS011;18385;51.572;6.578;2023-03-18T14:39:57;1.23;;;0.32;;
31676;SDS011;18385;51.572;6.578;2023-03-18T14:42:39;1.55;;;0.32;;
31676;SDS011;18385;51.572;6.578;2023-03-18T14:47:51;1.90;;;0.45;;
31676;SDS011;18385;51.572;6.578;2023-03-18T14:50:40;1.60;;;0.47;;
31676;SDS011;18385;51.572;6.578;2023-03-18T14:53:13;1.38;;;0.60;;
31676;SDS011;18385;51.572;6.578;2023-03-18T14:55:41;2.55;;;0.90;;
31676;SDS011;18385;51.572;6.578;2023-03-18T14:58:19;3.75;;;0.55;;
31676;SDS011;18385;51.572;6.578;2023-03-18T15:00:53;1.60;;;0.73;;
31676;SDS011;18385;51.572;6.578;2023-03-18T15:03:23;1.55;;;0.50;;
31676;SDS011;18385;51.572;6.578;2023-03-18T15:05:58;2.55;;;0.65;;
31676;SDS011;18385;51.572;6.578;2023-03-18T15:08:29;3.33;;;1.35;;
31676;SDS011;18385;51.572;6.578;2023-03-18T15:10:58;1.00;;;0.50;;
31676;SDS011;18385;51.572;6.578;2023-03-18T15:13:26;2.58;;;0.82;;
31676;SDS011;18385;51.572;6.578;2023-03-18T15:15:53;1.10;;;0.50;;
31676;SDS011;18385;51.572;6.578;2023-03-18T15:20:58;1.15;;;0.50;;
31676;SDS011;18385;51.572;6.578;2023-03-18T15:23:38;2.05;;;0.40;;
31676;SDS011;18385;51.572;6.578;2023-03-18T15:26:53;3.03;;;0.80;;
31676;SDS011;18385;51.572;6.578;2023-03-18T15:29:14;1.90;;;0.77;;
31676;SDS011;18385;51.572;6.578;2023-03-18T15:31:52;3.10;;;0.60;;
31676;SDS011;18385;51.572;6.578;2023-03-18T15:34:20;1.92;;;0.82;;
31676;SDS011;18385;51.572;6.578;2023-03-18T15:36:55;1.70;;;0.65;;
31676;SDS011;18385;51.572;6.578;2023-03-18T15:41:55;2.92;;;0.80;;
31676;SDS011;18385;51.572;6.578;2023-03-18T15:44:29;2.30;;;0.70;;
31676;SDS011;18385;51.572;6.578;2023-03-18T15:47:07;2.08;;;0.80;;
31676;SDS011;18385;51.572;6.578;2023-03-18T15:49:51;2.22;;;0.75;;
31676;SDS011;18385;51.572;6.578;2023-03-18T15:52:26;4.85;;;0.88;;
31676;SDS011;18385;51.572;6.578;2023-03-18T15:54:58;3.75;;;1.23;;
31676;SDS011;18385;51.572;6.578;2023-03-18T15:59:56;2.53;;;1.15;;
31676;SDS011;18385;51.572;6.578;2023-03-18T16:02:22;6.18;;;2.28;;
31676;SDS011;18385;51.572;6.578;2023-03-18T16:04:48;5.70;;;2.10;;
31676;SDS011;18385;51.572;6.578;2023-03-18T16:07:18;5.40;;;1.88;;
31676;SDS011;18385;51.572;6.578;2023-03-18T16:09:52;3.40;;;1.00;;
31676;SDS011;18385;51.572;6.578;2023-03-18T16:12:19;2.58;;;1.02;;
31676;SDS011;18385;51.572;6.578;2023-03-18T16:14:47;3.83;;;1.42;;
31676;SDS011;18385;51.572;6.578;2023-03-18T16:17:15;7.05;;;1.63;;
31676;SDS011;18385;51.572;6.578;2023-03-18T16:19:42;8.20;;;2.90;;
31676;SDS011;18385;51.572;6.578;2023-03-18T16:22:10;7.28;;;2.38;;
31676;SDS011;18385;51.572;6.578;2023-03-18T16:24:37;6.50;;;2.65;;
31676;SDS011;18385;51.572;6.578;2023-03-18T16:27:04;6.18;;;2.80;;
31676;SDS011;18385;51.572;6.578;2023-03-18T16:29:30;3.35;;;1.00;;
31676;SDS011;18385;51.572;6.578;2023-03-18T16:32:00;2.20;;;0.90;;
31676;SDS011;18385;51.572;6.578;2023-03-18T16:34:27;3.08;;;0.95;;
31676;SDS011;18385;51.572;6.578;2023-03-18T16:36:53;4.05;;;1.10;;
31676;SDS011;18385;51.572;6.578;2023-03-18T16:39:24;1.52;;;0.80;;
31676;SDS011;18385;51.572;6.578;2023-03-18T16:41:53;2.65;;;0.90;;
31676;SDS011;18385;51.572;6.578;2023-03-18T16:44:19;5.35;;;1.27;;
31676;SDS011;18385;51.572;6.578;2023-03-18T16:46:48;2.97;;;1.45;;
31676;SDS011;18385;51.572;6.578;2023-03-18T16:51:49;10.35;;;2.58;;
31676;SDS011;18385;51.572;6.578;2023-03-18T16:54:16;8.70;;;2.28;;
31676;SDS011;18385;51.572;6.578;2023-03-18T16:56:43;5.85;;;1.88;;
31676;SDS011;18385;51.572;6.578;2023-03-18T16:59:14;9.70;;;3.00;;
31676;SDS011;18385;51.572;6.578;2023-03-18T17:01:40;7.30;;;1.90;;
31676;SDS011;18385;51.572;6.578;2023-03-18T17:04:50;5.57;;;1.85;;
31676;SDS011;18385;51.572;6.578;2023-03-18T17:06:58;5.45;;;1.88;;
31676;SDS011;18385;51.572;6.578;2023-03-18T17:09:26;4.40;;;2.10;;
31676;SDS011;18385;51.572;6.578;2023-03-18T17:12:12;5.22;;;1.90;;
31676;SDS011;18385;51.572;6.578;2023-03-18T17:14:39;2.58;;;1.05;;
31676;SDS011;18385;51.572;6.578;2023-03-18T17:17:10;3.30;;;0.90;;
31676;SDS011;18385;51.572;6.578;2023-03-18T17:20:00;4.50;;;2.40;;
31676;SDS011;18385;51.572;6.578;2023-03-18T17:22:28;4.22;;;2.50;;